sensor_id;sensor_type;location;lat;lon;timestamp;pressure;altitude;pressure_sealevel;temperature;humidity
75617;BME280;64200;55.426;37.758;2023-04-10T00:02:07;100191.31;;;8.36;39.75
75617;BME280;64200;55.426;37.758;2023-04-10T00:07:07;100190.88;;;8.38;39.70
75617;BME280;64200;55.426;37.758;2023-04-10T00:12:08;100181.50;;;8.32;39.56
75617;BME280;64200;55.426;37.758;2023-04-10T00:17:10;100193.22;;;8.39;39.58
75617;BME280;64200;55.426;37.758;2023-04-10T00:22:11;100202.63;;;8.46;39.70
75617;BME280;64200;55.426;37.758;2023-04-10T00:27:11;100196.69;;;8.43;39.83
75617;BME280;64200;55.426;37.758;2023-04-10T00:32:12;100194.88;;;8.37;39.88
75617;BME280;64200;55.426;37.758;2023-04-10T00:37:12;100202.00;;;8.21;40.53
75617;BME280;64200;55.426;37.758;2023-04-10T00:42:13;100201.69;;;8.03;40.42
75617;BME280;64200;55.426;37.758;2023-04-10T00:47:13;100199.78;;;8.00;40.55
75617;BME280;64200;55.426;37.758;2023-04-10T00:52:14;100196.91;;;8.03;40.93
75617;BME280;64200;55.426;37.758;2023-04-10T00:57:16;100200.50;;;8.04;40.86
75617;BME280;64200;55.426;37.758;2023-04-10T01:02:17;100207.38;;;8.29;40.33
75617;BME280;64200;55.426;37.758;2023-04-10T01:18:12;100199.84;;;8.75;40.01
75617;BME280;64200;55.426;37.758;2023-04-10T01:33:41;100205.50;;;8.71;39.92
75617;BME280;64200;55.426;37.758;2023-04-10T01:38:46;100205.63;;;8.81;39.89
75617;BME280;64200;55.426;37.758;2023-04-10T01:43:50;100209.88;;;8.85;40.07
75617;BME280;64200;55.426;37.758;2023-04-10T01:48:52;100219.16;;;8.95;40.04
75617;BME280;64200;55.426;37.758;2023-04-10T01:53:54;100209.78;;;8.89;39.84
75617;BME280;64200;55.426;37.758;2023-04-10T01:58:56;100223.63;;;9.05;40.12
75617;BME280;64200;55.426;37.758;2023-04-10T02:03:57;100217.28;;;9.05;39.76
75617;BME280;64200;55.426;37.758;2023-04-10T02:14:10;100231.00;;;9.12;40.17
75617;BME280;64200;55.426;37.758;2023-04-10T02:19:15;100220.31;;;9.10;40.27
75617;BME280;64200;55.426;37.758;2023-04-10T02:24:17;100212.63;;;9.02;40.47
75617;BME280;64200;55.426;37.758;2023-04-10T02:29:18;100205.47;;;9.01;40.48
75617;BME280;64200;55.426;37.758;2023-04-10T02:34:19;100197.81;;;9.05;40.51
75617;BME280;64200;55.426;37.758;2023-04-10T02:39:20;100191.91;;;9.03;40.49
75617;BME280;64200;55.426;37.758;2023-04-10T02:44:20;100201.28;;;9.22;40.21
75617;BME280;64200;55.426;37.758;2023-04-10T02:49:21;100204.75;;;9.26;40.17
75617;BME280;64200;55.426;37.758;2023-04-10T02:54:21;100208.22;;;9.30;40.60
75617;BME280;64200;55.426;37.758;2023-04-10T02:59:22;100212.22;;;9.42;40.23
75617;BME280;64200;55.426;37.758;2023-04-10T03:04:23;100215.34;;;9.44;40.32
75617;BME280;64200;55.426;37.758;2023-04-10T03:09:23;100223.47;;;9.51;40.49
75617;BME280;64200;55.426;37.758;2023-04-10T03:14:24;100228.25;;;9.63;40.28
75617;BME280;64200;55.426;37.758;2023-04-10T03:19:25;100232.50;;;9.68;40.38
75617;BME280;64200;55.426;37.758;2023-04-10T03:24:25;100232.28;;;9.49;41.06
75617;BME280;64200;55.426;37.758;2023-04-10T03:29:26;100226.28;;;9.64;41.09
75617;BME280;64200;55.426;37.758;2023-04-10T03:34:26;100224.50;;;9.70;41.09
75617;BME280;64200;55.426;37.758;2023-04-10T03:39:27;100223.16;;;9.75;41.19
75617;BME280;64200;55.426;37.758;2023-04-10T03:44:28;100230.50;;;9.81;41.58
75617;BME280;64200;55.426;37.758;2023-04-10T03:49:29;100227.59;;;9.85;41.60
75617;BME280;64200;55.426;37.758;2023-04-10T03:54:29;100225.81;;;9.91;41.37
75617;BME280;64200;55.426;37.758;2023-04-10T03:59:30;100223.25;;;9.97;41.33
75617;BME280;64200;55.426;37.758;2023-04-10T04:04:30;100228.00;;;10.09;41.51
75617;BME280;64200;55.426;37.758;2023-04-10T04:09:31;100217.84;;;10.15;41.43
75617;BME280;64200;55.426;37.758;2023-04-10T04:14:31;100212.94;;;10.19;40.85
75617;BME280;64200;55.426;37.758;2023-04-10T04:19:32;100220.28;;;10.26;40.24
75617;BME280;64200;55.426;37.758;2023-04-10T04:24:32;100222.19;;;10.29;40.30
75617;BME280;64200;55.426;37.758;2023-04-10T04:29:33;100220.41;;;10.35;40.13
75617;BME280;64200;55.426;37.758;2023-04-10T04:34:33;100214.44;;;10.46;40.11
75617;BME280;64200;55.426;37.758;2023-04-10T04:39:34;100211.09;;;10.51;40.00
75617;BME280;64200;55.426;37.758;2023-04-10T04:44:35;100205.38;;;10.55;40.05
75617;BME280;64200;55.426;37.758;2023-04-10T04:49:35;100208.69;;;10.63;40.35
75617;BME280;64200;55.426;37.758;2023-04-10T04:54:36;100212.56;;;10.78;40.41
75617;BME280;64200;55.426;37.758;2023-04-10T04:59:36;100210.13;;;10.89;40.67
75617;BME280;64200;55.426;37.758;2023-04-10T05:04:37;100214.88;;;11.02;40.38
75617;BME280;64200;55.426;37.758;2023-04-10T05:09:37;100213.38;;;11.10;40.57
75617;BME280;64200;55.426;37.758;2023-04-10T05:14:38;100220.28;;;10.96;40.45
75617;BME280;64200;55.426;37.758;2023-04-10T05:19:38;100220.66;;;10.85;40.93
75617;BME280;64200;55.426;37.758;2023-04-10T05:24:39;100206.25;;;10.65;41.80
75617;BME280;64200;55.426;37.758;2023-04-10T05:29:40;100217.63;;;10.93;42.37
75617;BME280;64200;55.426;37.758;2023-04-10T05:34:40;100220.00;;;11.25;42.13
75617;BME280;64200;55.426;37.758;2023-04-10T05:39:40;100220.28;;;11.59;42.05
75617;BME280;64200;55.426;37.758;2023-04-10T05:44:41;100240.41;;;11.76;41.35
75617;BME280;64200;55.426;37.758;2023-04-10T05:49:41;100245.03;;;11.70;41.71
75617;BME280;64200;55.426;37.758;2023-04-10T05:54:42;100247.78;;;11.60;42.39
75617;BME280;64200;55.426;37.758;2023-04-10T05:59:43;100239.19;;;11.86;42.12
75617;BME280;64200;55.426;37.758;2023-04-10T06:04:43;100239.59;;;12.07;42.10
75617;BME280;64200;55.426;37.758;2023-04-10T06:09:44;100238.44;;;11.86;41.38
75617;BME280;64200;55.426;37.758;2023-04-10T06:14:44;100250.97;;;11.81;41.85
75617;BME280;64200;55.426;37.758;2023-04-10T06:19:45;100246.66;;;11.89;41.88
75617;BME280;64200;55.426;37.758;2023-04-10T06:24:45;100255.78;;;11.81;41.37
75617;BME280;64200;55.426;37.758;2023-04-10T06:29:46;100255.81;;;11.90;42.00
75617;BME280;64200;55.426;37.758;2023-04-10T06:34:46;100263.09;;;12.19;41.83
75617;BME280;64200;55.426;37.758;2023-04-10T06:39:47;100254.91;;;12.43;41.47
75617;BME280;64200;55.426;37.758;2023-04-10T06:44:47;100253.34;;;12.70;41.71
75617;BME280;64200;55.426;37.758;2023-04-10T06:49:48;100256.78;;;13.02;40.79
75617;BME280;64200;55.426;37.758;2023-04-10T06:54:48;100261.44;;;12.77;40.29
75617;BME280;64200;55.426;37.758;2023-04-10T06:59:49;100266.88;;;12.71;40.10
75617;BME280;64200;55.426;37.758;2023-04-10T07:04:49;100272.34;;;12.84;40.10
75617;BME280;64200;55.426;37.758;2023-04-10T07:09:56;100265.94;;;13.02;38.58
75617;BME280;64200;55.426;37.758;2023-04-10T07:14:59;100279.31;;;13.26;38.16
75617;BME280;64200;55.426;37.758;2023-04-10T07:20:00;100263.13;;;13.30;38.20
75617;BME280;64200;55.426;37.758;2023-04-10T07:25:01;100269.41;;;13.67;36.99
75617;BME280;64200;55.426;37.758;2023-04-10T07:30:01;100285.09;;;13.83;36.81
75617;BME280;64200;55.426;37.758;2023-04-10T07:35:02;100286.63;;;14.27;36.94
75617;BME280;64200;55.426;37.758;2023-04-10T07:40:03;100293.06;;;14.67;35.51
75617;BME280;64200;55.426;37.758;2023-04-10T07:45:04;100282.94;;;14.12;35.21
75617;BME280;64200;55.426;37.758;2023-04-10T07:50:05;100283.81;;;13.94;35.58
75617;BME280;64200;55.426;37.758;2023-04-10T07:55:06;100278.00;;;13.64;35.84
75617;BME280;64200;55.426;37.758;2023-04-10T08:00:07;100278.63;;;14.01;35.69
75617;BME280;64200;55.426;37.758;2023-04-10T08:05:08;100274.25;;;14.10;35.18
75617;BME280;64200;55.426;37.758;2023-04-10T08:10:08;100279.09;;;14.33;35.56
75617;BME280;64200;55.426;37.758;2023-04-10T08:15:09;100279.22;;;14.39;34.91
75617;BME280;64200;55.426;37.758;2023-04-10T08:20:11;100276.81;;;14.71;35.42
75617;BME280;64200;55.426;37.758;2023-04-10T08:25:11;100285.81;;;16.60;34.54
75617;BME280;64200;55.426;37.758;2023-04-10T08:30:12;100279.50;;;20.35;31.11
75617;BME280;64200;55.426;37.758;2023-04-10T08:35:12;100276.81;;;23.03;26.56
75617;BME280;64200;55.426;37.758;2023-04-10T08:40:13;100282.50;;;22.65;25.80
75617;BME280;64200;55.426;37.758;2023-04-10T08:45:15;100271.72;;;21.53;23.64
75617;BME280;64200;55.426;37.758;2023-04-10T08:50:16;100270.09;;;19.42;26.44
75617;BME280;64200;55.426;37.758;2023-04-10T08:55:17;100268.78;;;18.06;27.55
75617;BME280;64200;55.426;37.758;2023-04-10T09:00:19;100265.00;;;17.51;28.69
75617;BME280;64200;55.426;37.758;2023-04-10T09:05:20;100257.69;;;16.04;29.96
75617;BME280;64200;55.426;37.758;2023-04-10T09:10:20;100250.44;;;15.82;30.93
75617;BME280;64200;55.426;37.758;2023-04-10T09:15:21;100259.09;;;15.78;30.82
75617;BME280;64200;55.426;37.758;2023-04-10T09:20:23;100251.03;;;15.56;31.49
75617;BME280;64200;55.426;37.758;2023-04-10T09:25:33;100251.44;;;15.34;32.19
75617;BME280;64200;55.426;37.758;2023-04-10T09:30:41;100243.50;;;15.33;32.48
75617;BME280;64200;55.426;37.758;2023-04-10T09:35:42;100242.72;;;15.32;32.24
75617;BME280;64200;55.426;37.758;2023-04-10T09:40:43;100247.06;;;15.03;32.92
75617;BME280;64200;55.426;37.758;2023-04-10T09:45:51;100233.91;;;15.24;33.25
75617;BME280;64200;55.426;37.758;2023-04-10T09:50:52;100232.84;;;15.37;32.43
75617;BME280;64200;55.426;37.758;2023-04-10T09:55:53;100232.31;;;15.08;32.58
75617;BME280;64200;55.426;37.758;2023-04-10T10:00:55;100246.41;;;15.23;32.42
75617;BME280;64200;55.426;37.758;2023-04-10T10:05:56;100233.03;;;15.18;32.66
75617;BME280;64200;55.426;37.758;2023-04-10T10:10:58;100233.22;;;15.15;32.42
75617;BME280;64200;55.426;37.758;2023-04-10T10:16:07;100244.16;;;14.98;32.66
75617;BME280;64200;55.426;37.758;2023-04-10T10:21:12;100237.78;;;15.27;32.99
75617;BME280;64200;55.426;37.758;2023-04-10T10:26:14;100224.09;;;15.20;32.62
75617;BME280;64200;55.426;37.758;2023-04-10T10:31:15;100217.63;;;15.14;32.89
75617;BME280;64200;55.426;37.758;2023-04-10T10:36:18;100224.69;;;15.39;32.91
75617;BME280;64200;55.426;37.758;2023-04-10T10:41:27;100204.63;;;15.31;33.01
75617;BME280;64200;55.426;37.758;2023-04-10T10:51:47;100210.88;;;15.71;33.12
75617;BME280;64200;55.426;37.758;2023-04-10T10:56:48;100201.59;;;16.62;33.08
75617;BME280;64200;55.426;37.758;2023-04-10T11:02:12;100210.69;;;18.42;30.55
75617;BME280;64200;55.426;37.758;2023-04-10T11:07:16;100205.75;;;19.60;29.97
75617;BME280;64200;55.426;37.758;2023-04-10T11:12:24;100203.84;;;20.19;27.58
75617;BME280;64200;55.426;37.758;2023-04-10T11:17:50;100195.69;;;19.76;25.92
75617;BME280;64200;55.426;37.758;2023-04-10T11:28:08;100189.44;;;20.11;26.34
75617;BME280;64200;55.426;37.758;2023-04-10T11:33:16;100184.66;;;22.11;24.59
75617;BME280;64200;55.426;37.758;2023-04-10T11:38:17;100192.75;;;23.21;22.33
75617;BME280;64200;55.426;37.758;2023-04-10T11:43:17;100187.66;;;21.75;23.00
75617;BME280;64200;55.426;37.758;2023-04-10T11:48:18;100173.94;;;21.98;23.04
75617;BME280;64200;55.426;37.758;2023-04-10T11:53:19;100183.81;;;23.30;21.86
75617;BME280;64200;55.426;37.758;2023-04-10T11:58:29;100178.41;;;26.97;17.51
75617;BME280;64200;55.426;37.758;2023-04-10T12:03:32;100187.69;;;26.67;17.18
75617;BME280;64200;55.426;37.758;2023-04-10T12:08:33;100182.31;;;24.63;18.07
75617;BME280;64200;55.426;37.758;2023-04-10T12:13:34;100175.13;;;25.04;18.80
75617;BME280;64200;55.426;37.758;2023-04-10T12:18:36;100161.94;;;23.52;18.76
75617;BME280;64200;55.426;37.758;2023-04-10T12:23:37;100165.56;;;22.88;19.97
75617;BME280;64200;55.426;37.758;2023-04-10T12:28:39;100157.13;;;23.47;20.04
75617;BME280;64200;55.426;37.758;2023-04-10T12:33:45;100153.09;;;26.57;17.72
75617;BME280;64200;55.426;37.758;2023-04-10T12:38:46;100146.81;;;26.58;16.62
75617;BME280;64200;55.426;37.758;2023-04-10T12:43:46;100149.28;;;23.93;18.03
75617;BME280;64200;55.426;37.758;2023-04-10T12:48:47;100140.75;;;22.12;19.76
75617;BME280;64200;55.426;37.758;2023-04-10T12:53:47;100131.84;;;20.92;21.54
75617;BME280;64200;55.426;37.758;2023-04-10T12:58:48;100123.78;;;20.18;21.99
75617;BME280;64200;55.426;37.758;2023-04-10T13:03:48;100122.16;;;19.47;22.48
75617;BME280;64200;55.426;37.758;2023-04-10T13:08:49;100120.69;;;19.01;23.63
75617;BME280;64200;55.426;37.758;2023-04-10T13:13:51;100123.69;;;18.64;24.03
75617;BME280;64200;55.426;37.758;2023-04-10T13:18:52;100110.56;;;18.43;24.82
75617;BME280;64200;55.426;37.758;2023-04-10T13:23:55;100117.50;;;18.65;24.54
75617;BME280;64200;55.426;37.758;2023-04-10T13:28:56;100109.03;;;18.54;24.29
75617;BME280;64200;55.426;37.758;2023-04-10T13:33:56;100118.22;;;18.32;24.88
75617;BME280;64200;55.426;37.758;2023-04-10T13:38:57;100107.88;;;18.06;24.82
75617;BME280;64200;55.426;37.758;2023-04-10T13:43:57;100096.00;;;17.90;24.94
75617;BME280;64200;55.426;37.758;2023-04-10T13:48:58;100101.81;;;17.76;25.41
75617;BME280;64200;55.426;37.758;2023-04-10T13:53:58;100108.97;;;17.71;25.36
75617;BME280;64200;55.426;37.758;2023-04-10T13:58:59;100105.44;;;17.38;26.11
75617;BME280;64200;55.426;37.758;2023-04-10T14:04:00;100091.69;;;16.82;28.59
75617;BME280;64200;55.426;37.758;2023-04-10T14:09:05;100104.03;;;15.91;30.75
75617;BME280;64200;55.426;37.758;2023-04-10T14:14:06;100115.66;;;15.28;32.23
75617;BME280;64200;55.426;37.758;2023-04-10T14:19:06;100109.22;;;14.92;34.56
75617;BME280;64200;55.426;37.758;2023-04-10T14:24:07;100100.06;;;14.37;36.68
75617;BME280;64200;55.426;37.758;2023-04-10T14:29:07;100111.78;;;13.97;36.80
75617;BME280;64200;55.426;37.758;2023-04-10T14:34:08;100113.75;;;13.81;37.48
75617;BME280;64200;55.426;37.758;2023-04-10T14:39:08;100089.28;;;13.58;38.33
75617;BME280;64200;55.426;37.758;2023-04-10T14:44:09;100110.09;;;13.66;37.63
75617;BME280;64200;55.426;37.758;2023-04-10T14:49:11;100113.97;;;13.44;39.16
75617;BME280;64200;55.426;37.758;2023-04-10T14:54:12;100095.34;;;13.23;39.13
75617;BME280;64200;55.426;37.758;2023-04-10T14:59:12;100114.19;;;13.22;39.54
75617;BME280;64200;55.426;37.758;2023-04-10T15:04:13;100108.50;;;13.07;40.25
75617;BME280;64200;55.426;37.758;2023-04-10T15:09:13;100100.09;;;12.98;40.12
75617;BME280;64200;55.426;37.758;2023-04-10T15:14:14;100103.94;;;13.10;39.46
75617;BME280;64200;55.426;37.758;2023-04-10T15:19:14;100104.84;;;13.16;39.97
75617;BME280;64200;55.426;37.758;2023-04-10T15:24:15;100101.47;;;13.12;39.85
75617;BME280;64200;55.426;37.758;2023-04-10T15:29:15;100102.28;;;13.03;40.35
75617;BME280;64200;55.426;37.758;2023-04-10T15:34:16;100098.78;;;12.65;41.92
75617;BME280;64200;55.426;37.758;2023-04-10T15:39:16;100087.00;;;12.61;40.50
75617;BME280;64200;55.426;37.758;2023-04-10T15:44:17;100094.94;;;12.63;41.13
75617;BME280;64200;55.426;37.758;2023-04-10T15:49:18;100081.75;;;12.36;41.51
75617;BME280;64200;55.426;37.758;2023-04-10T15:54:18;100073.06;;;12.24;41.66
75617;BME280;64200;55.426;37.758;2023-04-10T15:59:19;100074.47;;;12.01;43.11
75617;BME280;64200;55.426;37.758;2023-04-10T16:04:19;100071.31;;;11.90;43.08
75617;BME280;64200;55.426;37.758;2023-04-10T16:09:20;100076.16;;;11.99;43.36
75617;BME280;64200;55.426;37.758;2023-04-10T16:14:21;100071.50;;;12.05;43.89
75617;BME280;64200;55.426;37.758;2023-04-10T16:19:21;100075.38;;;12.07;43.47
75617;BME280;64200;55.426;37.758;2023-04-10T16:24:22;100079.28;;;12.19;43.02
75617;BME280;64200;55.426;37.758;2023-04-10T16:29:23;100084.56;;;12.26;43.39
75617;BME280;64200;55.426;37.758;2023-04-10T16:34:23;100079.75;;;12.18;43.09
75617;BME280;64200;55.426;37.758;2023-04-10T16:39:24;100074.63;;;12.16;43.46
75617;BME280;64200;55.426;37.758;2023-04-10T16:44:25;100069.97;;;12.04;42.93
75617;BME280;64200;55.426;37.758;2023-04-10T16:49:25;100071.06;;;12.16;42.98
75617;BME280;64200;55.426;37.758;2023-04-10T16:54:26;100070.88;;;12.19;42.98
75617;BME280;64200;55.426;37.758;2023-04-10T16:59:26;100077.41;;;12.16;43.18
75617;BME280;64200;55.426;37.758;2023-04-10T17:04:29;100064.38;;;12.13;43.26
75617;BME280;64200;55.426;37.758;2023-04-10T17:09:30;100066.53;;;12.18;43.24
75617;BME280;64200;55.426;37.758;2023-04-10T17:14:31;100065.59;;;12.21;43.03
75617;BME280;64200;55.426;37.758;2023-04-10T17:19:31;100057.06;;;12.16;43.14
75617;BME280;64200;55.426;37.758;2023-04-10T17:24:32;100055.97;;;12.13;42.96
75617;BME280;64200;55.426;37.758;2023-04-10T17:29:36;100054.41;;;12.21;43.01
75617;BME280;64200;55.426;37.758;2023-04-10T17:34:38;100043.88;;;12.07;42.87
75617;BME280;64200;55.426;37.758;2023-04-10T17:39:39;100050.09;;;12.11;42.37
75617;BME280;64200;55.426;37.758;2023-04-10T17:44:39;100046.19;;;12.18;42.80
75617;BME280;64200;55.426;37.758;2023-04-10T17:49:40;100045.09;;;12.24;42.46
75617;BME280;64200;55.426;37.758;2023-04-10T17:54:40;100028.03;;;12.04;42.77
75617;BME280;64200;55.426;37.758;2023-04-10T17:59:41;100039.19;;;11.94;42.88
75617;BME280;64200;55.426;37.758;2023-04-10T18:04:42;100044.75;;;11.67;43.44
75617;BME280;64200;55.426;37.758;2023-04-10T18:09:42;100040.88;;;11.64;43.38
75617;BME280;64200;55.426;37.758;2023-04-10T18:14:44;100036.06;;;11.74;43.31
75617;BME280;64200;55.426;37.758;2023-04-10T18:19:49;100029.72;;;11.92;43.30
75617;BME280;64200;55.426;37.758;2023-04-10T18:24:50;100019.63;;;11.94;43.08
75617;BME280;64200;55.426;37.758;2023-04-10T18:29:51;100031.88;;;12.06;43.13
75617;BME280;64200;55.426;37.758;2023-04-10T18:34:52;100028.03;;;12.04;43.10
75617;BME280;64200;55.426;37.758;2023-04-10T18:39:52;100032.34;;;12.05;43.37
75617;BME280;64200;55.426;37.758;2023-04-10T18:44:53;100034.22;;;12.08;43.34
75617;BME280;64200;55.426;37.758;2023-04-10T18:49:53;100023.03;;;11.99;42.87
75617;BME280;64200;55.426;37.758;2023-04-10T18:54:54;100024.09;;;11.83;42.84
75617;BME280;64200;55.426;37.758;2023-04-10T18:59:55;100020.69;;;11.69;43.45
75617;BME280;64200;55.426;37.758;2023-04-10T19:04:56;100017.75;;;11.64;43.84
75617;BME280;64200;55.426;37.758;2023-04-10T19:09:56;100007.16;;;11.49;44.13
75617;BME280;64200;55.426;37.758;2023-04-10T19:14:57;100007.16;;;11.40;43.88
75617;BME280;64200;55.426;37.758;2023-04-10T19:19:57;100008.69;;;11.22;44.31
75617;BME280;64200;55.426;37.758;2023-04-10T19:25:00;100008.06;;;11.28;44.31
75617;BME280;64200;55.426;37.758;2023-04-10T19:30:01;99996.69;;;11.13;43.88
75617;BME280;64200;55.426;37.758;2023-04-10T19:35:02;99996.28;;;11.33;43.67
75617;BME280;64200;55.426;37.758;2023-04-10T19:40:02;100007.63;;;11.48;44.05
75617;BME280;64200;55.426;37.758;2023-04-10T19:45:03;99991.50;;;11.52;43.70
75617;BME280;64200;55.426;37.758;2023-04-10T19:50:04;100000.34;;;11.59;43.87
75617;BME280;64200;55.426;37.758;2023-04-10T19:55:05;99996.47;;;11.57;44.30
75617;BME280;64200;55.426;37.758;2023-04-10T20:00:07;99992.28;;;11.62;44.47
75617;BME280;64200;55.426;37.758;2023-04-10T20:05:09;99997.09;;;11.61;44.97
75617;BME280;64200;55.426;37.758;2023-04-10T20:10:09;100005.31;;;11.55;45.28
75617;BME280;64200;55.426;37.758;2023-04-10T20:15:11;100006.84;;;11.47;45.23
75617;BME280;64200;55.426;37.758;2023-04-10T20:20:11;100000.94;;;11.36;46.05
75617;BME280;64200;55.426;37.758;2023-04-10T20:25:12;100009.31;;;11.27;46.63
75617;BME280;64200;55.426;37.758;2023-04-10T20:30:13;100002.47;;;11.18;46.22
75617;BME280;64200;55.426;37.758;2023-04-10T20:35:13;99992.81;;;11.10;46.47
75617;BME280;64200;55.426;37.758;2023-04-10T20:40:14;100002.91;;;11.17;47.08
75617;BME280;64200;55.426;37.758;2023-04-10T20:45:15;100011.59;;;11.19;47.02
75617;BME280;64200;55.426;37.758;2023-04-10T20:50:15;100007.56;;;11.20;47.23
75617;BME280;64200;55.426;37.758;2023-04-10T20:55:17;100012.69;;;11.21;47.61
75617;BME280;64200;55.426;37.758;2023-04-10T21:00:17;100008.03;;;11.18;47.72
75617;BME280;64200;55.426;37.758;2023-04-10T21:05:18;100016.88;;;11.17;47.16
75617;BME280;64200;55.426;37.758;2023-04-10T21:10:19;100005.84;;;11.13;47.43
75617;BME280;64200;55.426;37.758;2023-04-10T21:15:19;100005.41;;;11.15;47.46
75617;BME280;64200;55.426;37.758;2023-04-10T21:20:21;100000.59;;;11.15;47.09
75617;BME280;64200;55.426;37.758;2023-04-10T21:25:22;100008.78;;;11.10;47.90
75617;BME280;64200;55.426;37.758;2023-04-10T21:30:22;100004.31;;;11.12;47.61
75617;BME280;64200;55.426;37.758;2023-04-10T21:35:23;100003.22;;;11.10;47.56
75617;BME280;64200;55.426;37.758;2023-04-10T21:40:35;100004.59;;;11.05;47.88
75617;BME280;64200;55.426;37.758;2023-04-10T21:45:37;99992.16;;;10.97;48.08
75617;BME280;64200;55.426;37.758;2023-04-10T21:50:38;100001.59;;;10.90;48.27
75617;BME280;64200;55.426;37.758;2023-04-10T21:55:41;100007.00;;;10.84;48.22
75617;BME280;64200;55.426;37.758;2023-04-10T22:00:41;100000.66;;;10.84;48.72
75617;BME280;64200;55.426;37.758;2023-04-10T22:05:46;99993.69;;;10.88;48.80
75617;BME280;64200;55.426;37.758;2023-04-10T22:10:48;99993.81;;;10.85;48.73
75617;BME280;64200;55.426;37.758;2023-04-10T22:15:48;99992.88;;;10.79;48.51
75617;BME280;64200;55.426;37.758;2023-04-10T22:20:49;100000.78;;;10.80;48.87
75617;BME280;64200;55.426;37.758;2023-04-10T22:25:50;99995.66;;;10.79;48.79
75617;BME280;64200;55.426;37.758;2023-04-10T22:30:50;99982.94;;;10.78;49.01
75617;BME280;64200;55.426;37.758;2023-04-10T22:35:51;99992.75;;;10.82;49.53
75617;BME280;64200;55.426;37.758;2023-04-10T22:40:53;99983.00;;;10.87;49.37
75617;BME280;64200;55.426;37.758;2023-04-10T22:45:55;99972.47;;;10.91;49.33
75617;BME280;64200;55.426;37.758;2023-04-10T22:50:55;99972.47;;;10.91;49.05
75617;BME280;64200;55.426;37.758;2023-04-10T22:55:57;99970.44;;;10.92;49.60
75617;BME280;64200;55.426;37.758;2023-04-10T23:00:58;99958.19;;;10.89;49.05
75617;BME280;64200;55.426;37.758;2023-04-10T23:05:58;99966.56;;;10.89;49.28
75617;BME280;64200;55.426;37.758;2023-04-10T23:10:59;99956.63;;;10.88;49.02
75617;BME280;64200;55.426;37.758;2023-04-10T23:15:59;99964.69;;;10.86;49.48
75617;BME280;64200;55.426;37.758;2023-04-10T23:21:03;99951.81;;;10.79;49.60
75617;BME280;64200;55.426;37.758;2023-04-10T23:26:05;99959.34;;;10.69;49.46
75617;BME280;64200;55.426;37.758;2023-04-10T23:31:06;99957.78;;;10.59;49.61
75617;BME280;64200;55.426;37.758;2023-04-10T23:36:08;99962.41;;;10.53;49.43
75617;BME280;64200;55.426;37.758;2023-04-10T23:41:08;99962.66;;;10.46;49.46
75617;BME280;64200;55.426;37.758;2023-04-10T23:46:09;99952.28;;;10.46;49.55
75617;BME280;64200;55.426;37.758;2023-04-10T23:51:09;99953.53;;;10.45;49.92
75617;BME280;64200;55.426;37.758;2023-04-10T23:56:10;99954.25;;;10.36;49.81
